• Join FlightAware (Why Join?)
  • Login
  • US Flag 
02:06PM EDT


 

Airport Tracker/Info


-or-


 

Live Flight TrackerFlight Track Log ✈ N1944E ✈ 07-Oct-2013 ✈ KCOD - 6S5

Flight Track Log - Related Links

Times and Time Zones

All times are in EDT time to prevent confusion due to time zone crossing. See the N1944E flight status page for this flight to view local times or setup timezone preferences in your user account.

Time Position Orientation Groundspeed Altitude Reporting Facility
EDT Latitude Longitude Course Direction KTS MPH feet Rate Location/Type
08:46AM 44.4942 -109.1597 298° West 100 115 9,000  Level Salt Lake Center
08:47AM 44.5125 -109.1933 307° West 108 124 9,800 600 Climbing Salt Lake Center
08:48AM 44.5319 -109.2250 311° West 109 125 10,300 600 Climbing Salt Lake Center
08:49AM 44.5500 -109.2561 309° West 106 122 11,100 780 Climbing Salt Lake Center
08:50AM 44.5617 -109.2903 296° West 103 119 11,900 840 Climbing Salt Lake Center
08:51AM 44.5781 -109.3281 301° West 106 122 12,800 840 Climbing Salt Lake Center
08:52AM 44.6513 -109.3780 298° West  Level Estimated
08:52AM 44.5969 -109.3672 304° West 115 132 13,600  Level Salt Lake Center
08:53AM 44.6142 -109.4083 300° West 121 139 14,300 720 Climbing Salt Lake Center
08:54AM 44.6317 -109.4494 301° West 123 142 15,100 660 Climbing Salt Lake Center
08:55AM 44.6500 -109.4894 303° West 123 142 15,700 600 Climbing Salt Lake Center
08:56AM 44.6672 -109.5278 302° West 118 136 16,400 600 Climbing Salt Lake Center
08:57AM 44.6872 -109.5664 306° West 120 138 17,000 540 Climbing Salt Lake Center
08:58AM 44.7075 -109.6053 306° West 123 142 17,600 540 Climbing Salt Lake Center
08:59AM 44.7283 -109.6458 306° West 126 145 18,100 180 Climbing Salt Lake Center
09:00AM 44.7536 -109.6964 305° West 148 170 18,000 -60 Descending Salt Lake Center
09:01AM 44.7828 -109.7492 308° West 164 189 18,000  Level Salt Lake Center
09:02AM 44.8189 -109.8111 309° West 169 194 18,000  Level Salt Lake Center
09:03AM 44.8456 -109.8622 306° West 170 196 18,000  Level Salt Lake Center
09:04AM 44.8686 -109.9181 300° West 171 197 18,000  Level Salt Lake Center
09:05AM 44.8883 -109.9744 296° West 170 196 18,000  Level Salt Lake Center
09:06AM 44.9081 -110.0406 293° West 166 191 18,000  Level Salt Lake Center
09:07AM 44.9261 -110.1008 293° West 172 198 18,000  Level Salt Lake Center
09:08AM 44.9439 -110.1708 290° West 171 197 18,000  Level Salt Lake Center
09:10AM 44.9639 -110.2308 295° West 175 201 18,000  Level Salt Lake Center
09:11AM 44.9844 -110.2911 296° West 178 205 18,000  Level Salt Lake Center
09:12AM 45.0081 -110.3617 295° West 180 207 18,000  Level Salt Lake Center
09:13AM 45.0364 -110.4161 306° West 181 208 18,000  Level Salt Lake Center
09:14AM 45.0603 -110.4733 301° West 175 201 18,000  Level Salt Lake Center
09:15AM 45.0842 -110.5403 297° West 172 198 18,000  Level Salt Lake Center
09:16AM 45.1042 -110.5978 296° West 171 197 18,000  Level Salt Lake Center
09:17AM 45.1311 -110.6586 302° West 178 205 18,000  Level Salt Lake Center
09:18AM 45.1572 -110.7192 301° West 176 203 18,000  Level Salt Lake Center
09:19AM 45.1844 -110.7781 303° West 175 201 18,000  Level Salt Lake Center
09:20AM 45.2078 -110.8372 299° West 170 196 18,100  Climbing Salt Lake Center
09:21AM 45.2286 -110.8969 296° West 166 191 18,000 -60 Descending Salt Lake Center
09:22AM 45.2464 -110.9597 292° West 168 193 18,000  Level Salt Lake Center
09:23AM 45.2667 -111.0242 294° West 174 200 18,000  Level Salt Lake Center
09:24AM 45.2878 -111.0928 294° West 184 212 18,000  Level Salt Lake Center
09:25AM 45.3072 -111.1597 292° West 182 209 18,000  Level Salt Lake Center
09:26AM 45.3267 -111.2206 294° West 181 208 18,000  Level Salt Lake Center
09:27AM 45.3467 -111.2850 294° West 176 203 18,000  Level Salt Lake Center
09:28AM 45.3650 -111.3442 294° West 163 188 18,000  Level Salt Lake Center
09:29AM 45.3850 -111.4008 297° West 158 182 18,000  Level Salt Lake Center
09:30AM 45.4031 -111.4589 294° West 158 182 18,000  Level Salt Lake Center
09:31AM 45.4225 -111.5172 295° West 160 184 18,000  Level Salt Lake Center
09:32AM 45.4414 -111.5744 295° West 157 181 18,000  Level Salt Lake Center
09:33AM 45.4608 -111.6339 295° West 163 188 18,000  Level Salt Lake Center
09:34AM 45.4808 -111.6936 296° West 164 189 18,100  Climbing Salt Lake Center
09:35AM 45.4992 -111.7572 292° West 168 193 18,100  Level Salt Lake Center
09:36AM 45.5192 -111.8208 294° West 172 198 18,100 -60 Level Salt Lake Center
09:37AM 45.5389 -111.8861 293° West 177 204 18,000 -60 Descending Salt Lake Center
09:38AM 45.5589 -111.9542 293° West 182 209 18,000  Level Salt Lake Center
09:39AM 45.5803 -112.0186 295° West 177 204 18,000  Level Salt Lake Center
09:40AM 45.6047 -112.0803 300° West 176 203 18,000  Level Salt Lake Center
09:41AM 45.6333 -112.1403 304° West 178 205 18,000  Level Salt Lake Center
09:42AM 45.6558 -112.2050 296° West 179 206 18,100  Climbing Salt Lake Center
09:43AM 45.6750 -112.2714 292° West 179 206 18,000 -60 Descending Salt Lake Center
09:44AM 45.6922 -112.3386 290° West 177 204 18,000  Level Salt Lake Center
09:45AM 45.7097 -112.4058 290° West 177 204 18,000  Level Salt Lake Center
09:46AM 45.7294 -112.4728 293° West 179 206 18,000  Level Salt Lake Center
09:47AM 45.7506 -112.5378 295° West 178 205 18,100  Climbing Salt Lake Center
09:48AM 45.7717 -112.6036 295° West 178 205 18,100 -60 Level Salt Lake Center
09:49AM 45.7928 -112.6689 295° West 177 204 18,000 -60 Descending Salt Lake Center
09:50AM 45.8131 -112.7342 294° West 177 204 18,000  Level Salt Lake Center
09:51AM 45.8336 -112.7964 295° West 171 197 18,100  Climbing Salt Lake Center
09:52AM 45.8556 -112.8589 297° West 171 197 18,100 -60 Level Salt Lake Center
09:53AM 45.8789 -112.9219 298° West 175 201 18,000 -300 Descending Salt Lake Center
09:54AM 45.8983 -112.9864 293° West 176 203 17,600 -540 Descending Salt Lake Center
09:55AM 45.9189 -113.0553 293° West 183 211 17,000 -600 Descending Salt Lake Center
09:56AM 45.9406 -113.1242 294° West 185 213 16,400 -660 Descending Salt Lake Center
09:57AM 45.9636 -113.1956 295° West 191 220 15,700 -720 Descending Salt Lake Center
09:59AM 45.9857 -113.2691 293° West  Level FlightAware Approximate
10:06AM 46.1197 -113.7031 294° West  Level FlightAware Approximate
10:07AM 46.1390 -113.7651 294° West  Level FlightAware Approximate
10:08AM 46.1582 -113.8271 294° West  Level FlightAware Approximate
10:09AM 46.1774 -113.8892 294° West  Level FlightAware Approximate
10:10AM 46.1965 -113.9513 294° West  Level FlightAware Approximate
10:11AM 46.2157 -114.0135 294° West  Level FlightAware Approximate
10:12AM 46.2361 -114.0748 296° West  Level FlightAware Approximate
10:13AM 46.2500 -114.1167 296° West  Level FlightAware Approximate
10:14AM 46.2515 -114.1255 296° West  Level Estimated
10:15AM 46.2500 -114.1167 296° West  Level FlightAware Approximate
10:16AM 46.2515 -114.1255 296° West  Level Estimated
10:17AM 46.2500 -114.1167 296° West  Level FlightAware Approximate
10:18AM 46.2515 -114.1255 296° West  Level Estimated
10:19AM 46.2500 -114.1167 296° West  Level FlightAware Approximate
10:20AM 46.2515 -114.1255 296° West  Level Estimated
10:21AM 46.2500 -114.1167 296° West  Level FlightAware Approximate
10:22AM 46.2515 -114.1255 296° West  Level Estimated
10:23AM 46.2500 -114.1167 296° West  Level FlightAware Approximate
10:24AM 46.2515 -114.1255 296° West  Level Estimated
10:25AM 46.2500 -114.1167 296° West  Level FlightAware Approximate
10:26AM 46.2515 -114.1255 296° West  Level Estimated